createdAt,value
2019-01-30T00:00:02.218Z,51.10
2019-01-30T00:02:32.436Z,51.93
2019-01-30T00:05:02.804Z,51.67
2019-01-30T00:07:33.121Z,49.87
2019-01-30T00:10:03.279Z,47.80
2019-01-30T00:12:33.564Z,49.93
2019-01-30T00:15:03.785Z,52.97
2019-01-30T00:17:34.167Z,46.07
2019-01-30T00:20:05.208Z,50.87
2019-01-30T00:22:35.584Z,51.33
2019-01-30T00:25:06.368Z,50.07
2019-01-30T00:27:36.575Z,47.33
2019-01-30T00:30:08.707Z,48.20
2019-01-30T00:32:39.088Z,45.83
2019-01-30T00:35:10.302Z,43.87
2019-01-30T00:37:40.644Z,46.90
2019-01-30T00:40:11.371Z,46.63
2019-01-30T00:42:41.631Z,52.43
2019-01-30T00:45:13.405Z,46.83
2019-01-30T00:47:43.661Z,48.10
2019-01-30T00:50:14.616Z,47.57
2019-01-30T00:52:44.847Z,45.10
2019-01-30T00:55:15.632Z,49.47
2019-01-30T00:57:45.911Z,50.17
2019-01-30T01:00:18.807Z,46.23
2019-01-30T01:02:49.070Z,49.03
2019-01-30T01:05:19.622Z,49.17
2019-01-30T01:07:50.091Z,48.07
2019-01-30T01:10:21.036Z,44.33
2019-01-30T01:12:51.574Z,46.00
2019-01-30T01:15:21.895Z,47.57
2019-01-30T01:17:52.159Z,47.10
2019-01-30T01:20:22.672Z,48.17
2019-01-30T01:22:52.966Z,54.20
2019-01-30T01:25:23.285Z,57.27
2019-01-30T01:27:53.554Z,53.03
2019-01-30T01:30:28.154Z,63.43
2019-01-30T01:32:58.582Z,56.73
2019-01-30T01:35:28.944Z,57.07
2019-01-30T01:37:59.308Z,62.30
2019-01-30T01:40:29.678Z,57.53
2019-01-30T01:42:59.966Z,59.37
2019-01-30T01:45:30.263Z,62.23
2019-01-30T01:48:00.551Z,56.27
2019-01-30T01:50:30.971Z,61.77
2019-01-30T01:53:01.351Z,53.30
2019-01-30T01:55:31.580Z,52.70
2019-01-30T01:58:01.832Z,56.93
2019-01-30T02:00:35.512Z,56.23
2019-01-30T02:03:04.211Z,55.90
2019-01-30T02:05:34.417Z,55.20
2019-01-30T02:08:04.849Z,53.17
2019-01-30T02:10:35.765Z,55.43
2019-01-30T02:13:06.625Z,58.90
2019-01-30T02:15:37.080Z,59.60
2019-01-30T02:18:08.563Z,55.30
2019-01-30T02:20:39.114Z,59.20
2019-01-30T02:23:09.332Z,53.47
2019-01-30T02:25:39.565Z,51.17
2019-01-30T02:28:09.875Z,54.10
2019-01-30T02:30:47.014Z,52.03
2019-01-30T02:33:12.093Z,51.23
2019-01-30T02:35:42.479Z,48.97
2019-01-30T02:38:12.765Z,51.20
2019-01-30T02:40:43.083Z,53.83
2019-01-30T02:43:13.605Z,52.77
2019-01-30T02:45:43.877Z,48.20
2019-01-30T02:48:14.158Z,49.13
2019-01-30T02:50:44.512Z,47.07
2019-01-30T02:53:14.876Z,50.93
2019-01-30T02:55:45.291Z,47.03
2019-01-30T02:58:15.567Z,45.30
2019-01-30T03:00:45.879Z,38.53
2019-01-30T03:03:16.091Z,40.87
2019-01-30T03:05:46.446Z,33.73
2019-01-30T03:08:16.740Z,32.03
2019-01-30T03:10:47.163Z,31.60
2019-01-30T03:13:17.542Z,28.70
2019-01-30T03:15:47.865Z,31.93
2019-01-30T03:18:18.116Z,30.87
2019-01-30T03:20:48.431Z,28.80
2019-01-30T03:23:18.687Z,29.47
2019-01-30T03:25:48.964Z,29.97
2019-01-30T03:28:19.259Z,26.00
2019-01-30T03:30:49.555Z,26.93
2019-01-30T03:33:19.845Z,23.17
2019-01-30T03:35:50.132Z,25.07
2019-01-30T03:38:20.387Z,26.80
2019-01-30T03:40:50.530Z,27.10
2019-01-30T03:43:21.058Z,25.73
2019-01-30T03:45:51.316Z,21.73
2019-01-30T03:48:21.514Z,21.70
2019-01-30T03:50:51.961Z,21.07
2019-01-30T03:53:22.377Z,19.37
2019-01-30T03:55:52.586Z,23.27
2019-01-30T03:58:22.918Z,23.67
2019-01-30T04:00:53.195Z,20.90
2019-01-30T04:03:23.546Z,23.20
2019-01-30T04:05:53.698Z,25.00
2019-01-30T04:08:23.943Z,24.13
2019-01-30T04:10:54.165Z,24.53
2019-01-30T04:13:24.533Z,23.07
2019-01-30T04:15:54.766Z,27.03
2019-01-30T04:18:25.009Z,25.83
2019-01-30T04:20:55.336Z,23.13
2019-01-30T04:23:25.726Z,24.80
2019-01-30T04:25:55.962Z,25.17
2019-01-30T04:28:26.303Z,53.27
2019-01-30T04:30:56.560Z,134.93
2019-01-30T04:33:26.753Z,64.20
2019-01-30T04:35:57.015Z,29.07
2019-01-30T04:38:27.213Z,29.57
2019-01-30T04:40:57.430Z,26.27
2019-01-30T04:43:27.690Z,28.50
2019-01-30T04:45:57.956Z,28.07
2019-01-30T04:48:28.193Z,28.23
2019-01-30T04:50:58.506Z,30.13
2019-01-30T04:53:28.717Z,26.33
2019-01-30T04:55:58.960Z,30.20
2019-01-30T04:58:29.257Z,29.63
2019-01-30T05:00:59.557Z,29.43
2019-01-30T05:03:29.795Z,28.97
2019-01-30T05:06:00.110Z,31.87
2019-01-30T05:08:30.377Z,32.63
2019-01-30T05:11:00.681Z,33.67
2019-01-30T05:13:30.953Z,32.33
2019-01-30T05:16:01.354Z,34.43
2019-01-30T05:18:31.763Z,35.83
2019-01-30T05:21:02.185Z,40.80
2019-01-30T05:23:32.473Z,41.47
2019-01-30T05:26:02.729Z,42.20
2019-01-30T05:28:33.042Z,39.70
2019-01-30T05:31:03.262Z,42.97
2019-01-30T05:33:33.570Z,43.70
2019-01-30T05:36:03.886Z,45.87
2019-01-30T05:38:34.158Z,46.83
2019-01-30T05:41:04.533Z,44.67
2019-01-30T05:43:34.865Z,47.13
2019-01-30T05:46:05.005Z,47.33
2019-01-30T05:48:35.255Z,48.10
2019-01-30T05:51:05.651Z,44.47
2019-01-30T05:53:35.872Z,41.67
2019-01-30T05:56:06.217Z,48.57
2019-01-30T05:58:36.524Z,50.07
2019-01-30T06:01:06.841Z,47.67
2019-01-30T06:03:37.067Z,47.17
2019-01-30T06:06:07.356Z,51.17
2019-01-30T06:08:37.640Z,49.07
2019-01-30T06:11:08.265Z,50.40
2019-01-30T06:13:38.460Z,55.07
2019-01-30T06:16:08.745Z,53.57
2019-01-30T06:18:39.021Z,56.10
2019-01-30T06:21:09.417Z,50.33
2019-01-30T06:23:39.657Z,49.07
2019-01-30T06:26:09.855Z,48.47
2019-01-30T06:28:40.201Z,52.00
2019-01-30T06:31:10.460Z,50.80
2019-01-30T06:33:40.657Z,51.57
2019-01-30T06:36:10.941Z,55.30
2019-01-30T06:38:41.209Z,53.57
2019-01-30T06:41:11.433Z,66.70
2019-01-30T06:43:41.681Z,49.37
2019-01-30T06:46:11.968Z,45.10
2019-01-30T06:48:42.216Z,44.73
2019-01-30T06:51:12.597Z,51.30
2019-01-30T06:53:42.824Z,49.93
2019-01-30T06:56:13.044Z,56.20
2019-01-30T06:58:43.353Z,56.83
2019-01-30T07:01:13.625Z,58.20
2019-01-30T07:03:43.789Z,51.67
2019-01-30T07:06:14.114Z,54.97
2019-01-30T07:08:44.382Z,50.47
2019-01-30T07:11:14.554Z,55.40
2019-01-30T07:13:44.834Z,52.20
2019-01-30T07:16:15.137Z,49.77
2019-01-30T07:18:45.365Z,42.97
2019-01-30T07:21:15.641Z,41.27
2019-01-30T07:23:45.883Z,43.37
2019-01-30T07:26:16.504Z,46.10
2019-01-30T07:28:46.843Z,45.17
2019-01-30T07:31:19.265Z,45.50
2019-01-30T07:33:48.918Z,44.37
2019-01-30T07:36:19.253Z,40.97
2019-01-30T07:38:49.491Z,42.83
2019-01-30T07:41:19.735Z,40.57
2019-01-30T07:43:50.094Z,39.37
2019-01-30T07:46:20.317Z,39.43
2019-01-30T07:48:50.597Z,42.03
2019-01-30T07:51:20.870Z,41.60
2019-01-30T07:53:51.128Z,41.50
2019-01-30T07:56:21.353Z,44.87
2019-01-30T07:58:51.626Z,36.90
2019-01-30T08:01:22.217Z,41.23
2019-01-30T08:03:52.730Z,50.23
2019-01-30T08:06:23.184Z,42.40
2019-01-30T08:08:53.457Z,36.27
2019-01-30T08:11:23.694Z,42.30
2019-01-30T08:13:54.049Z,42.37
2019-01-30T08:16:24.381Z,38.47
2019-01-30T08:18:54.657Z,40.33
2019-01-30T08:21:24.941Z,43.77
2019-01-30T08:23:56.489Z,35.70
2019-01-30T08:26:26.811Z,35.50
2019-01-30T08:28:57.314Z,34.73
2019-01-30T08:31:27.871Z,33.10
2019-01-30T08:33:58.210Z,39.77
2019-01-30T08:36:28.470Z,30.73
2019-01-30T08:38:58.649Z,35.47
2019-01-30T08:41:29.006Z,36.13
2019-01-30T08:43:59.132Z,30.27
2019-01-30T08:46:29.344Z,26.93
2019-01-30T08:48:59.636Z,36.80
2019-01-30T08:51:29.849Z,26.83
2019-01-30T08:54:00.135Z,29.33
2019-01-30T08:56:30.594Z,37.90
2019-01-30T08:59:00.868Z,30.40
2019-01-30T09:01:31.078Z,33.90
2019-01-30T09:04:01.455Z,29.93
2019-01-30T09:06:31.761Z,29.53
2019-01-30T09:09:01.918Z,26.23
2019-01-30T09:11:32.202Z,25.53
2019-01-30T09:14:02.528Z,25.67
2019-01-30T09:16:32.845Z,27.13
2019-01-30T09:19:03.074Z,24.50
2019-01-30T09:21:33.363Z,25.53
2019-01-30T09:24:03.669Z,25.33
2019-01-30T09:26:33.986Z,23.10
2019-01-30T09:29:04.259Z,25.60
2019-01-30T09:31:34.445Z,26.87
2019-01-30T09:34:04.625Z,29.27
2019-01-30T09:36:35.005Z,23.20
2019-01-30T09:39:08.301Z,21.03
2019-01-30T09:41:38.773Z,22.60
2019-01-30T09:44:09.021Z,27.63
2019-01-30T09:46:39.355Z,30.57
2019-01-30T09:49:09.637Z,26.20
2019-01-30T09:51:39.909Z,31.30
2019-01-30T09:54:10.269Z,30.43
2019-01-30T09:56:40.713Z,26.03
2019-01-30T09:59:11.455Z,25.70
2019-01-30T10:01:41.808Z,36.83
2019-01-30T10:04:12.153Z,27.73
2019-01-30T10:06:42.395Z,29.60
2019-01-30T10:09:13.060Z,27.43
2019-01-30T10:11:43.297Z,27.87
2019-01-30T10:14:13.545Z,27.57
2019-01-30T10:16:44.036Z,33.27
2019-01-30T10:19:14.426Z,41.70
2019-01-30T10:21:44.578Z,29.93
2019-01-30T10:24:14.889Z,28.90
2019-01-30T10:26:45.228Z,35.43
2019-01-30T10:29:15.486Z,37.87
2019-01-30T10:31:45.741Z,35.70
2019-01-30T10:34:16.025Z,42.67
2019-01-30T10:36:46.268Z,41.27
2019-01-30T10:39:16.556Z,36.93
2019-01-30T10:41:46.773Z,32.07
2019-01-30T10:44:16.979Z,32.97
2019-01-30T10:46:47.302Z,30.03
2019-01-30T10:49:17.626Z,28.30
2019-01-30T10:51:47.743Z,28.47
2019-01-30T10:54:18.080Z,30.27
2019-01-30T10:56:48.479Z,35.70
2019-01-30T10:59:18.727Z,28.27
2019-01-30T11:01:49.038Z,27.20
2019-01-30T11:04:19.277Z,34.47
2019-01-30T11:06:49.522Z,30.87
2019-01-30T11:09:19.797Z,29.37
2019-01-30T11:11:50.033Z,27.37
2019-01-30T11:14:22.523Z,31.33
2019-01-30T11:16:52.819Z,29.70
2019-01-30T11:19:23.204Z,28.97
2019-01-30T11:21:53.412Z,26.30
2019-01-30T11:24:23.669Z,29.97
2019-01-30T11:26:53.943Z,24.73
2019-01-30T11:29:24.277Z,25.90
2019-01-30T11:31:54.561Z,28.33
2019-01-30T11:34:24.813Z,26.43
2019-01-30T11:36:55.019Z,25.70
2019-01-30T11:39:25.321Z,28.83
2019-01-30T11:41:55.589Z,27.13
2019-01-30T11:44:27.916Z,24.83
2019-01-30T11:46:57.715Z,24.53
2019-01-30T11:49:28.119Z,24.07
2019-01-30T11:51:58.828Z,24.03
2019-01-30T11:54:38.500Z,26.33
2019-01-30T11:57:01.161Z,23.03
2019-01-30T11:59:32.062Z,23.70
2019-01-30T12:02:03.413Z,28.27
2019-01-30T12:04:34.581Z,27.03
2019-01-30T12:07:05.535Z,27.80
2019-01-30T12:09:37.048Z,30.03
2019-01-30T12:12:07.657Z,29.73
2019-01-30T12:14:38.354Z,33.53
2019-01-30T12:17:08.866Z,38.63
2019-01-30T12:19:39.150Z,34.67
2019-01-30T12:22:09.342Z,39.33
2019-01-30T12:24:39.837Z,31.77
2019-01-30T12:27:10.094Z,32.40
2019-01-30T12:29:40.332Z,29.90
2019-01-30T12:32:10.704Z,31.87
2019-01-30T12:34:40.882Z,27.17
2019-01-30T12:37:11.076Z,31.27
2019-01-30T12:39:41.366Z,26.80
2019-01-30T12:42:11.645Z,31.73
2019-01-30T12:44:41.884Z,30.27
2019-01-30T12:47:19.736Z,32.13
2019-01-30T12:49:44.025Z,33.40
2019-01-30T12:52:14.266Z,33.23
2019-01-30T12:54:44.524Z,33.47
2019-01-30T12:57:14.793Z,31.77
2019-01-30T12:59:45.030Z,29.30
2019-01-30T13:02:15.436Z,36.87
2019-01-30T13:04:45.693Z,29.83
2019-01-30T13:07:15.903Z,34.50
2019-01-30T13:09:46.169Z,37.97
2019-01-30T13:12:16.567Z,43.63
2019-01-30T13:14:46.793Z,35.53
2019-01-30T13:17:17.048Z,43.20
2019-01-30T13:19:47.349Z,35.47
2019-01-30T13:22:17.640Z,36.33
2019-01-30T13:24:47.837Z,33.07
2019-01-30T13:27:18.042Z,38.87
2019-01-30T13:29:48.296Z,31.17
2019-01-30T13:32:18.713Z,34.77
2019-01-30T13:34:49.262Z,31.70
2019-01-30T13:37:19.441Z,34.53
2019-01-30T13:39:49.766Z,37.50
2019-01-30T13:42:20.056Z,32.30
2019-01-30T13:44:50.348Z,31.90
2019-01-30T13:47:20.733Z,32.20
2019-01-30T13:49:50.954Z,36.23
2019-01-30T13:52:21.222Z,29.20
2019-01-30T13:54:51.613Z,26.47
2019-01-30T13:57:21.971Z,27.80
2019-01-30T13:59:52.159Z,29.30
2019-01-30T14:02:22.441Z,27.87
2019-01-30T14:04:59.331Z,28.43
2019-01-30T14:07:24.696Z,29.97
2019-01-30T14:09:55.053Z,32.37
2019-01-30T14:12:25.351Z,32.77
2019-01-30T14:14:55.581Z,31.87
2019-01-30T14:17:25.879Z,29.90
2019-01-30T14:19:56.113Z,27.83
2019-01-30T14:22:26.335Z,32.00
2019-01-30T14:24:56.579Z,29.60
2019-01-30T14:27:26.891Z,33.43
2019-01-30T14:29:58.380Z,33.70
2019-01-30T14:32:29.109Z,31.93
2019-01-30T14:35:10.142Z,34.70
2019-01-30T14:37:31.191Z,33.47
2019-01-30T14:40:01.408Z,28.57
2019-01-30T14:42:31.534Z,31.23
2019-01-30T14:45:01.764Z,29.30
2019-01-30T14:47:32.129Z,31.63
2019-01-30T14:50:02.357Z,32.57
2019-01-30T14:52:32.611Z,33.63
2019-01-30T14:55:02.996Z,34.97
2019-01-30T14:57:33.673Z,32.93
2019-01-30T15:00:04.067Z,32.73
2019-01-30T15:02:34.554Z,31.17
2019-01-30T15:05:05.814Z,30.00
2019-01-30T15:07:36.059Z,29.90
2019-01-30T15:10:07.977Z,34.43
2019-01-30T15:12:38.489Z,34.53
2019-01-30T15:15:10.616Z,35.30
2019-01-30T15:17:40.936Z,29.27
2019-01-30T15:20:17.852Z,33.37
2019-01-30T15:22:48.041Z,33.63
2019-01-30T15:25:19.526Z,32.53
2019-01-30T15:27:49.786Z,33.40
2019-01-30T15:30:28.559Z,33.97
2019-01-30T15:32:58.872Z,37.40
2019-01-30T15:35:33.579Z,37.77
2019-01-30T15:38:01.893Z,34.87
2019-01-30T15:40:32.529Z,36.47
2019-01-30T15:43:02.669Z,32.53
2019-01-30T15:45:33.300Z,32.93
2019-01-30T15:48:05.066Z,33.57
2019-01-30T15:50:36.257Z,30.17
2019-01-30T15:53:09.662Z,33.93
2019-01-30T15:55:39.727Z,30.13
2019-01-30T15:58:11.510Z,35.20
2019-01-30T16:00:49.547Z,29.87
2019-01-30T16:03:19.662Z,30.10
2019-01-30T16:05:49.897Z,40.67
2019-01-30T16:08:20.013Z,31.83
2019-01-30T16:10:50.078Z,34.57
2019-01-30T16:13:19.984Z,33.30
2019-01-30T16:15:53.735Z,35.00
2019-01-30T16:18:23.687Z,36.27
2019-01-30T16:20:53.932Z,35.90
2019-01-30T16:23:24.189Z,32.63
2019-01-30T16:25:54.254Z,33.83
2019-01-30T16:28:24.513Z,29.90
2019-01-30T16:30:54.598Z,36.47
2019-01-30T16:33:24.525Z,34.23
2019-01-30T16:35:56.172Z,34.60
2019-01-30T16:38:26.561Z,40.40
2019-01-30T16:40:56.717Z,33.77
2019-01-30T16:43:26.633Z,40.70
2019-01-30T16:45:56.798Z,33.47
2019-01-30T16:48:26.725Z,43.20
2019-01-30T16:50:56.740Z,37.23
2019-01-30T16:53:27.092Z,39.77
2019-01-30T16:55:57.329Z,44.93
2019-01-30T16:58:27.494Z,42.93
2019-01-30T17:00:57.804Z,32.60
2019-01-30T17:03:28.095Z,31.63
2019-01-30T17:06:07.129Z,44.17
2019-01-30T17:08:30.585Z,38.07
2019-01-30T17:11:00.648Z,37.77
2019-01-30T17:13:30.754Z,39.37
2019-01-30T17:16:00.988Z,56.47
2019-01-30T17:18:31.213Z,49.60
2019-01-30T17:21:01.526Z,44.57
2019-01-30T17:23:31.577Z,42.00
2019-01-30T17:26:01.768Z,36.33
2019-01-30T17:28:31.724Z,29.37
2019-01-30T17:31:20.254Z,45.40
2019-01-30T17:33:50.520Z,33.03
2019-01-30T17:36:20.646Z,29.73
2019-01-30T17:38:50.683Z,28.17
2019-01-30T17:41:20.985Z,28.13
2019-01-30T17:43:51.289Z,29.27
2019-01-30T17:46:21.765Z,27.80
2019-01-30T17:48:51.883Z,35.90
2019-01-30T17:51:22.138Z,34.33
2019-01-30T17:53:52.347Z,38.67
2019-01-30T17:56:22.250Z,29.03
2019-01-30T17:58:52.461Z,45.03
2019-01-30T18:01:22.916Z,39.67
2019-01-30T18:03:52.962Z,29.70
2019-01-30T18:06:29.549Z,30.87
2019-01-30T18:08:54.882Z,30.13
2019-01-30T18:11:25.241Z,33.70
2019-01-30T18:13:55.442Z,48.10
2019-01-30T18:16:26.879Z,45.40
2019-01-30T18:18:57.362Z,43.13
2019-01-30T18:21:27.439Z,58.80
2019-01-30T18:23:57.425Z,57.77
2019-01-30T18:26:27.362Z,51.87
2019-01-30T18:28:57.573Z,57.17
2019-01-30T18:31:27.561Z,38.07
2019-01-30T18:33:57.500Z,34.40
2019-01-30T18:36:27.826Z,38.10
2019-01-30T18:38:58.654Z,38.17
2019-01-30T18:41:29.088Z,47.40
2019-01-30T18:43:59.326Z,34.80
2019-01-30T18:46:29.659Z,39.57
2019-01-30T18:48:59.924Z,33.07
2019-01-30T18:51:30.190Z,34.03
2019-01-30T18:54:00.836Z,33.17
2019-01-30T18:56:31.041Z,40.90
2019-01-30T18:59:01.302Z,45.83
2019-01-30T19:01:31.609Z,60.53
2019-01-30T19:04:01.998Z,62.67
2019-01-30T19:06:32.437Z,68.57
2019-01-30T19:09:02.741Z,70.97
2019-01-30T19:11:33.023Z,65.50
2019-01-30T19:14:03.169Z,67.27
2019-01-30T19:16:33.439Z,71.17
2019-01-30T19:19:03.686Z,62.10
2019-01-30T19:21:34.019Z,69.87
2019-01-30T19:24:04.567Z,66.80
2019-01-30T19:26:35.015Z,70.63
2019-01-30T19:29:05.265Z,71.67
2019-01-30T19:31:35.694Z,68.83
2019-01-30T19:34:06.049Z,63.73
2019-01-30T19:36:36.252Z,61.63
2019-01-30T19:39:09.523Z,67.53
2019-01-30T19:41:39.772Z,71.40
2019-01-30T19:44:11.321Z,68.80
2019-01-30T19:46:41.803Z,71.97
2019-01-30T19:49:12.065Z,69.63
2019-01-30T19:51:42.298Z,69.47
2019-01-30T19:54:12.676Z,59.57
2019-01-30T19:56:42.917Z,66.70
2019-01-30T19:59:17.624Z,70.67
2019-01-30T20:01:45.098Z,72.57
2019-01-30T20:04:15.349Z,75.70
2019-01-30T20:06:45.722Z,73.80
2019-01-30T20:09:21.974Z,77.17
2019-01-30T20:11:52.357Z,75.60
2019-01-30T20:14:22.582Z,77.03
2019-01-30T20:16:53.058Z,75.00
2019-01-30T20:19:23.310Z,79.37
2019-01-30T20:21:53.589Z,85.57
2019-01-30T20:24:23.962Z,91.90
2019-01-30T20:26:54.231Z,103.00
2019-01-30T20:29:24.570Z,138.77
2019-01-30T20:31:54.894Z,184.07
2019-01-30T20:34:25.170Z,218.67
2019-01-30T20:36:55.393Z,202.90
2019-01-30T20:39:25.747Z,144.33
2019-01-30T20:41:56.190Z,131.23
2019-01-30T20:44:26.410Z,141.90
2019-01-30T20:46:56.763Z,141.43
2019-01-30T20:49:27.003Z,145.87
2019-01-30T20:51:57.227Z,131.57
2019-01-30T20:54:27.531Z,118.23
2019-01-30T20:56:57.778Z,119.30
2019-01-30T20:59:27.982Z,124.30
2019-01-30T21:01:58.255Z,114.83
2019-01-30T21:04:28.564Z,134.70
2019-01-30T21:06:58.876Z,122.80
2019-01-30T21:09:29.124Z,134.23
2019-01-30T21:11:59.405Z,120.80
2019-01-30T21:14:29.643Z,138.37
2019-01-30T21:16:59.936Z,107.07
2019-01-30T21:19:30.139Z,122.33
2019-01-30T21:22:00.374Z,107.27
2019-01-30T21:24:30.701Z,111.47
2019-01-30T21:27:00.936Z,109.27
2019-01-30T21:29:31.137Z,119.80
2019-01-30T21:32:01.453Z,117.47
2019-01-30T21:34:31.730Z,112.87
2019-01-30T21:37:02.181Z,105.30
2019-01-30T21:39:32.512Z,113.30
2019-01-30T21:42:02.830Z,107.23
2019-01-30T21:44:33.106Z,108.13
2019-01-30T21:47:03.376Z,101.07
2019-01-30T21:49:33.629Z,102.77
2019-01-30T21:52:04.022Z,112.53
2019-01-30T21:54:34.374Z,95.83
2019-01-30T21:57:04.952Z,110.70
2019-01-30T21:59:35.270Z,100.30
2019-01-30T22:02:08.338Z,109.90
2019-01-30T22:04:37.893Z,113.03
2019-01-30T22:07:08.154Z,108.20
2019-01-30T22:09:38.446Z,112.07
2019-01-30T22:12:08.718Z,102.03
2019-01-30T22:14:38.942Z,101.57
2019-01-30T22:17:09.306Z,109.53
2019-01-30T22:19:39.573Z,113.07
2019-01-30T22:22:09.824Z,108.43
2019-01-30T22:24:40.207Z,107.43
2019-01-30T22:27:10.415Z,105.13
2019-01-30T22:29:40.635Z,77.90
2019-01-30T22:32:10.955Z,104.50
2019-01-30T22:34:41.366Z,97.90
2019-01-30T22:37:11.721Z,109.60
2019-01-30T22:39:42.005Z,86.40
2019-01-30T22:42:12.204Z,71.63
2019-01-30T22:44:42.477Z,79.07
2019-01-30T22:47:12.874Z,92.60
2019-01-30T22:49:43.134Z,64.33
2019-01-30T22:52:13.385Z,80.33
2019-01-30T22:54:43.626Z,86.23
2019-01-30T22:57:13.892Z,65.17
2019-01-30T22:59:44.164Z,99.53
2019-01-30T23:02:15.441Z,76.83
2019-01-30T23:05:26.209Z,104.17
2019-01-30T23:08:11.121Z,87.53
2019-01-30T23:11:17.853Z,88.90
2019-01-30T23:13:57.759Z,79.83
2019-01-30T23:17:10.827Z,77.20
2019-01-30T23:20:23.646Z,84.97
2019-01-30T23:23:30.627Z,82.30
2019-01-30T23:26:29.850Z,97.43
2019-01-30T23:29:45.620Z,84.60
2019-01-30T23:32:52.726Z,71.07
2019-01-30T23:36:03.886Z,75.00
2019-01-30T23:38:54.673Z,73.33
2019-01-30T23:42:01.569Z,60.63
2019-01-30T23:44:53.295Z,58.80
2019-01-30T23:47:59.458Z,55.90
2019-01-30T23:51:05.662Z,97.03
2019-01-30T23:53:46.040Z,92.27
2019-01-30T23:57:06.912Z,111.03
